Latest Weather Observations for Jacup

IDW60801

Issued at 4:53 pm WST Wednesday 10 August 2022 (issued every 10 minutes, with the page automatically refreshed every 10 minutes)

About weather observations | Map of weather stations | Latest weather observations for WA | Other Formats
Station Details ID: 010905 Name: JACUP Lat: -33.89 Lon: 119.11 Height: 305.0 m
Data from the previous 72 hours. | See also: Recent months at Jacup
Date/Time
WST
Temp
°C
App
Temp
°C
Dew
Point
°C
Rel
Hum
%
Delta-T
°C
Wind Press
QNH
hPa
Press
MSL
hPa
Rain since
9am
mm
Dir  Spd
km/h
Gust
km/h
Spd
kts
Gust
kts
10/04:30pm 12.0 6.7 5.0 62 3.3 SSW 22 35 12 19 1020.4 1020.5 0.2
10/04:00pm 11.6 6.6 4.6 62 3.2 SSW 20 32 11 17 1020.0 1020.1 0.2
10/03:30pm 12.1 7.3 5.7 65 3.0 S 20 30 11 16 1019.8 1019.9 0.2
10/03:00pm 14.2 9.1 5.8 57 4.0 SSW 22 37 12 20 1019.3 1019.4 0.2
10/02:30pm 13.7 7.8 5.6 58 3.9 SSW 26 35 14 19 1019.2 1019.3 0.2
10/02:00pm 14.5 8.9 5.3 54 4.4 SSW 24 43 13 23 1018.7 1018.8 0.2
10/01:33pm 13.1 6.0 3.7 53 4.3 SSW 30 50 16 27 1018.6 1018.7 0.2
10/01:30pm 13.4 6.5 4.8 56 4.0 SSW 30 44 16 24 1018.5 1018.6 0.2
10/01:00pm 13.8 7.7 6.4 61 3.6 SSW 28 43 15 23 1018.4 1018.5 0.0
10/12:30pm 10.3 5.3 6.5 77 1.8 SSW 22 35 12 19 1018.9 1019.0 0.0
10/12:00pm 12.5 6.8 5.0 60 3.5 SW 24 43 13 23 1018.6 1018.7 0.0
10/11:40am 13.0 6.4 4.2 55 4.1 SW 28 50 15 27 1018.8 1018.9 0.0
10/11:30am 12.5 5.9 4.0 56 3.9 SW 28 44 15 24 1018.9 1019.0 0.0
10/11:17am 12.2 5.7 4.7 60 3.5 SW 28 46 15 25 1019.0 1019.1 0.0
10/11:00am 11.1 5.5 5.2 67 2.7 SW 24 35 13 19 1019.2 1019.3 0.0
10/10:35am 11.7 5.4 5.6 66 2.9 WSW 28 46 15 25 1018.8 1018.9 0.0
10/10:30am 11.4 5.1 5.5 67 2.8 WSW 28 44 15 24 1018.7 1018.8 0.0
10/10:00am 10.8 5.7 6.0 72 2.3 WSW 22 41 12 22 1018.5 1018.6 0.0
10/09:30am 9.5 3.9 5.5 76 1.9 WSW 24 37 13 20 1018.1 1018.2 0.0
10/09:00am 8.3 2.8 5.8 84 1.2 W 24 35 13 19 1018.0 1018.1 1.8
10/08:30am 6.7 1.0 5.0 89 0.8 W 24 35 13 19 1017.7 1017.7 1.8
10/08:00am 6.2 1.3 5.2 93 0.4 W 20 32 11 17 1017.3 1017.4 1.8
10/07:30am 5.0 0.1 4.1 94 0.4 W 19 28 10 15 1016.8 1016.9 1.8
10/07:00am 4.6 -0.6 3.7 94 0.4 W 20 32 11 17 1016.5 1016.6 1.8
10/06:30am 4.3 -0.7 3.4 94 0.4 W 19 30 10 16 1016.1 1016.2 1.8
10/06:00am 4.4 -0.8 3.5 94 0.4 W 20 28 11 15 1015.7 1015.8 1.6
10/05:30am 4.5 -0.7 3.6 94 0.4 W 20 32 11 17 1015.2 1015.2 1.6
10/05:00am 4.5 -0.7 3.6 94 0.4 W 20 30 11 16 1014.9 1014.9 1.6
10/04:30am 4.5 -1.1 3.6 94 0.4 W 22 33 12 18 1014.7 1014.7 1.6
10/04:00am 4.4 -0.6 3.5 94 0.4 W 19 28 10 15 1014.4 1014.4 1.6
10/03:30am 4.1 -1.0 3.2 94 0.4 W 19 26 10 14 1014.5 1014.5 1.6
10/03:00am 3.9 -0.8 3.0 94 0.4 W 17 24 9 13 1014.4 1014.4 1.6
10/02:30am 4.1 -1.2 3.2 94 0.4 W 20 30 11 16 1014.2 1014.2 1.6
10/02:00am 4.0 -1.7 3.1 94 0.4 W 22 32 12 17 1014.1 1014.1 1.6
10/01:30am 4.1 -1.5 3.2 94 0.4 W 22 33 12 18 1013.9 1014.0 1.6
10/01:00am 4.3 -0.7 3.4 94 0.4 W 19 30 10 16 1013.7 1013.8 1.6
10/12:30am 4.0 -1.3 3.1 94 0.4 W 20 33 11 18 1013.4 1013.5 1.6
10/12:00am 4.1 -1.0 3.2 94 0.4 W 19 32 10 17 1013.6 1013.7 1.6
 
Date/Time
WST
Temp
°C
App
Temp
°C
Dew
Point
°C
Rel
Hum
%
Delta-T
°C
Wind Press
QNH
hPa
Press
MSL
hPa
Rain since
9am
mm
Dir  Spd
km/h
Gust
km/h
Spd
kts
Gust
kts
09/11:30pm 4.0 -1.1 3.1 94 0.4 W 19 28 10 15 1013.6 1013.7 1.6
09/11:00pm 4.1 -1.2 3.2 94 0.4 W 20 28 11 15 1013.3 1013.4 1.4
09/10:30pm 4.3 -0.8 3.3 93 0.4 W 19 24 10 13 1013.1 1013.2 1.4
09/10:00pm 4.7 -0.5 3.7 93 0.4 W 20 33 11 18 1013.0 1013.1 1.4
09/09:30pm 4.8 0.6 3.8 93 0.4 W 15 22 8 12 1012.8 1012.9 1.4
09/09:00pm 4.8 0.2 3.8 93 0.4 W 17 26 9 14 1012.9 1013.0 1.4
09/08:30pm 4.8 0.9 3.6 92 0.5 W 13 20 7 11 1012.8 1012.9 1.4
09/08:00pm 5.0 1.2 3.8 92 0.5 W 13 20 7 11 1012.6 1012.7 1.4
09/07:30pm 4.9 1.4 3.6 91 0.6 W 11 20 6 11 1012.1 1012.1 1.4
09/07:00pm 5.6 1.5 4.1 90 0.6 W 15 22 8 12 1011.8 1011.8 1.4
09/06:30pm 5.9 1.4 4.2 89 0.7 WSW 17 28 9 15 1011.5 1011.5 1.4
09/06:00pm 6.1 1.3 4.4 89 0.7 WSW 19 24 10 13 1010.9 1010.9 1.4
09/05:30pm 6.3 2.2 4.5 88 0.8 WSW 15 26 8 14 1010.3 1010.4 1.4
09/05:00pm 6.7 1.4 4.9 88 0.8 WSW 22 32 12 17 1009.7 1009.8 1.4
09/04:30pm 7.3 2.9 4.8 84 1.1 WSW 17 28 9 15 1009.3 1009.3 1.4
09/04:00pm 7.9 3.6 5.4 84 1.1 SW 17 30 9 16 1008.8 1008.8 1.4
09/03:30pm 8.0 3.7 6.8 92 0.6 WSW 19 30 10 16 1008.4 1008.4 1.4
09/03:00pm 7.2 3.1 6.0 92 0.6 WSW 17 26 9 14 1007.8 1007.8 1.4
09/02:30pm 7.2 3.0 5.8 91 0.6 WSW 17 24 9 13 1007.3 1007.3 1.4
09/02:00pm 7.2 2.5 5.3 88 0.9 SSW 19 28 10 15 1006.9 1007.0 1.0
09/01:30pm 11.1 5.8 5.0 66 2.8 WSW 22 37 12 20 1006.3 1006.3 0.0
09/01:00pm 10.6 5.0 5.2 69 2.5 W 24 35 13 19 1006.2 1006.2 0.0
09/12:30pm 9.9 3.9 5.5 74 2.0 WSW 26 35 14 19 1006.4 1006.4 0.0
09/12:00pm 9.5 4.6 4.9 73 2.1 W 20 39 11 21 1006.7 1006.7 0.0
09/11:30am 9.2 3.9 5.2 76 1.8 W 22 32 12 17 1006.7 1006.7 0.0
09/11:00am 8.5 3.1 4.7 77 1.7 W 22 33 12 18 1006.7 1006.7 0.0
09/10:30am 8.4 3.3 5.9 84 1.2 WNW 22 33 12 18 1007.0 1007.1 0.0
09/10:00am 6.9 1.6 5.1 88 0.8 W 22 32 12 17 1007.3 1007.3 0.0
09/09:30am 6.7 2.4 5.3 91 0.6 W 17 26 9 14 1007.3 1007.3 0.0
09/09:00am 6.3 1.5 4.9 91 0.6 WNW 19 30 10 16 1007.0 1007.1 4.2
09/08:30am 6.2 1.5 5.2 93 0.4 WNW 19 32 10 17 1006.9 1007.0 4.2
09/08:00am 6.2 1.9 5.3 94 0.4 WNW 17 24 9 13 1006.7 1006.7 4.2
09/07:30am 5.0 0.9 4.3 95 0.3 NW 15 26 8 14 1006.3 1006.3 4.2
09/07:00am 4.8 0.3 4.1 95 0.3 NW 17 24 9 13 1005.9 1005.9 4.2
09/06:30am 4.6 0.4 3.7 94 0.4 NW 15 24 8 13 1005.8 1005.8 4.2
09/06:00am 4.5 -0.1 3.6 94 0.4 NW 17 20 9 11 1005.9 1005.9 4.2
09/05:30am 4.8 0.2 3.9 94 0.4 NW 17 26 9 14 1005.7 1005.7 4.2
09/05:00am 5.0 0.9 4.1 94 0.4 NW 15 26 8 14 1005.7 1005.7 4.2
09/04:30am 5.3 0.8 4.4 94 0.4 NW 17 26 9 14 1005.8 1005.8 4.2
09/04:00am 5.5 0.5 4.6 94 0.4 NW 20 30 11 16 1005.6 1005.6 4.2
09/03:30am 5.7 0.7 4.8 94 0.4 NW 20 28 11 15 1005.8 1005.8 4.2
09/03:00am 5.9 1.5 5.0 94 0.4 NW 17 26 9 14 1006.2 1006.2 4.2
09/02:30am 6.1 1.4 5.2 94 0.4 NW 19 32 10 17 1006.4 1006.4 4.0
09/02:00am 6.3 2.0 5.4 94 0.4 NW 17 28 9 15 1006.8 1006.8 4.0
09/01:30am 6.5 2.7 5.6 94 0.4 NW 15 22 8 12 1007.2 1007.2 4.0
09/01:00am 6.6 2.4 5.7 94 0.4 NW 17 22 9 12 1007.6 1007.6 4.0
09/12:30am 6.8 3.0 5.9 94 0.4 NNW 15 20 8 11 1007.8 1007.8 4.0
09/12:00am 7.2 3.5 6.1 93 0.5 NW 15 20 8 11 1008.0 1008.0 4.0
 
Date/Time
WST
Temp
°C
App
Temp
°C
Dew
Point
°C
Rel
Hum
%
Delta-T
°C
Wind Press
QNH
hPa
Press
MSL
hPa
Rain since
9am
mm
Dir  Spd
km/h
Gust
km/h
Spd
kts
Gust
kts
08/11:30pm 7.6 3.9 6.5 93 0.5 NW 15 20 8 11 1008.0 1008.0 4.0
08/11:00pm 7.9 4.3 6.8 93 0.5 NW 15 24 8 13 1008.5 1008.5 4.0
08/10:30pm 8.7 5.3 7.8 94 0.4 NW 15 24 8 13 1008.4 1008.4 4.0
08/10:00pm 8.9 5.2 8.0 94 0.4 NW 17 26 9 14 1008.7 1008.7 4.0
08/09:30pm 9.1 5.8 8.2 94 0.4 NW 15 24 8 13 1008.9 1008.9 4.0
08/09:00pm 9.2 5.2 8.3 94 0.4 NW 19 26 10 14 1008.8 1008.8 4.0
08/08:30pm 9.3 6.1 8.4 94 0.4 NW 15 24 8 13 1008.9 1008.9 4.0
08/08:00pm 9.4 5.8 8.3 93 0.5 NW 17 24 9 13 1008.9 1008.9 4.0
08/07:30pm 9.7 6.2 8.6 93 0.5 NW 17 26 9 14 1008.8 1008.8 4.0
08/07:00pm 10.0 6.2 8.9 93 0.6 NW 19 26 10 14 1008.6 1008.6 4.0
08/06:30pm 10.2 6.5 9.3 94 0.5 NW 19 26 10 14 1008.4 1008.4 4.0
08/06:00pm 10.3 6.4 9.4 94 0.5 NW 20 32 11 17 1008.8 1008.8 3.2
08/05:30pm 10.1 6.3 9.0 93 0.6 NW 19 28 10 15 1008.2 1008.2 2.6
08/05:00pm 10.1 6.7 9.0 93 0.6 NW 17 28 9 15 1008.1 1008.1 2.6
08/04:30pm 10.1 6.7 9.0 93 0.6 NW 17 24 9 13 1008.4 1008.4 2.4
08/04:00pm 10.2 6.1 8.8 91 0.7 WNW 20 28 11 15 1008.5 1008.5 1.8
08/03:30pm 10.5 7.0 8.8 89 0.9 WNW 17 24 9 13 1008.8 1008.8 1.0
08/03:00pm 10.9 4.1 7.0 77 1.9 W 32 56 17 30 1008.7 1008.7 0.2
08/02:53pm 12.5 5.6 6.5 67 2.9 WNW 32 56 17 30 1008.5 1008.5 0.0
08/02:52pm 12.9 6.0 6.5 65 3.1 NW 32 56 17 30 1008.4 1008.4 0.0
08/02:31pm 16.4 10.6 8.1 58 4.3 NNW 28 46 15 25 1007.9 1007.9 0.0
08/02:30pm 16.3 10.6 8.5 60 4.0 NNW 28 44 15 24 1007.9 1007.9 0.0
08/02:09pm 15.3 9.0 7.6 60 3.9 NNW 30 48 16 26 1008.2 1008.2 0.0
08/02:00pm 15.3 9.0 7.6 60 3.9 NNW 30 46 16 25 1008.2 1008.2 0.0
08/01:30pm 15.7 9.0 7.2 57 4.3 NW 32 50 17 27 1008.5 1008.5 0.0
08/01:00pm 17.0 11.1 7.6 54 4.8 NW 28 48 15 26 1008.8 1008.8 0.0
08/12:30pm 16.6 9.6 7.0 53 4.8 NW 33 52 18 28 1009.4 1009.4 0.0
08/12:00pm 16.7 9.9 6.8 52 5.0 NW 32 50 17 27 1009.8 1009.9 0.0
08/11:30am 15.9 8.0 6.1 52 4.8 NW 37 56 20 30 1010.3 1010.4 0.0
08/11:04am 15.5 8.4 5.7 52 4.8 NNW 32 50 17 27 1010.9 1010.9 0.0
08/11:00am 15.4 8.3 5.6 52 4.8 NW 32 48 17 26 1011.0 1011.0 0.0
08/10:49am 15.6 9.5 6.6 55 4.5 NNW 28 46 15 25 1011.1 1011.1 0.0
08/10:30am 14.9 8.7 6.2 56 4.3 NNW 28 43 15 23 1011.4 1011.4 0.0
08/10:00am 14.1 8.7 6.2 59 3.8 NNW 24 41 13 22 1011.7 1011.7 0.0
08/09:30am 12.3 6.0 5.5 63 3.2 NW 28 41 15 22 1012.3 1012.3 0.0
08/09:00am 11.6 5.6 5.3 65 3.0 NNW 26 41 14 22 1012.6 1012.7 0.6
08/08:30am 10.0 4.3 5.0 71 2.3 NNW 24 35 13 19 1012.9 1013.0 0.6
08/08:00am 9.5 4.3 5.3 75 1.9 NNW 22 33 12 18 1013.3 1013.4 0.6
08/07:30am 8.7 4.1 5.4 80 1.5 NNW 19 30 10 16 1013.3 1013.4 0.6
08/07:00am 8.0 3.8 5.5 84 1.1 NNW 17 30 9 16 1013.4 1013.5 0.6
08/06:30am 7.7 3.5 5.5 86 1.0 NNW 17 24 9 13 1013.3 1013.4 0.6
08/06:00am 7.8 3.6 5.9 88 0.9 NW 17 24 9 13 1013.3 1013.4 0.6
08/05:30am 7.4 3.6 6.0 91 0.6 NNW 15 20 8 11 1013.3 1013.4 0.6
08/05:00am 6.5 2.9 5.1 91 0.6 NNW 13 19 7 10 1013.3 1013.4 0.6
08/04:30am 6.7 3.2 5.3 91 0.6 NNW 13 19 7 10 1013.5 1013.6 0.6
08/04:00am 6.8 3.3 5.3 90 0.7 NNW 13 19 7 10 1013.7 1013.8 0.6
08/03:30am 7.3 3.9 5.8 90 0.7 NNW 13 19 7 10 1013.9 1014.0 0.6
08/03:00am 7.5 4.1 6.1 91 0.6 NNW 13 17 7 9 1014.3 1014.3 0.6
08/02:30am 7.0 4.0 5.8 92 0.5 NNW 11 15 6 8 1014.5 1014.5 0.6
08/02:00am 6.8 4.4 5.4 91 0.6 N 7 13 4 7 1014.8 1014.8 0.6
08/01:30am 7.5 4.9 6.1 91 0.6 NNW 9 13 5 7 1015.1 1015.1 0.6
08/01:00am 7.2 4.6 6.1 93 0.5 NNW 9 13 5 7 1015.4 1015.5 0.6
08/12:30am 6.6 3.9 5.6 93 0.5 N 9 13 5 7 1015.5 1015.6 0.6
08/12:00am 6.1 3.3 5.1 93 0.4 N 9 13 5 7 1015.8 1015.9 0.6
 
Date/Time
WST
Temp
°C
App
Temp
°C
Dew
Point
°C
Rel
Hum
%
Delta-T
°C
Wind Press
QNH
hPa
Press
MSL
hPa
Rain since
9am
mm
Dir  Spd
km/h
Gust
km/h
Spd
kts
Gust
kts
07/11:30pm 5.4 2.5 4.4 93 0.4 N 9 15 5 8 1016.3 1016.4 0.6
07/11:00pm 4.9 1.4 3.7 92 0.5 N 11 15 6 8 1016.5 1016.6 0.6
07/10:30pm 5.1 2.1 3.9 92 0.5 N 9 13 5 7 1016.5 1016.6 0.6
07/10:00pm 5.4 2.0 4.1 91 0.6 N 11 15 6 8 1016.5 1016.6 0.6
07/09:30pm 5.7 2.7 4.2 90 0.7 N 9 11 5 6 1016.6 1016.7 0.6
07/09:00pm 5.7 2.7 4.0 89 0.7 N 9 11 5 6 1016.6 1016.7 0.6
07/08:30pm 5.8 2.8 4.0 88 0.8 NNW 9 11 5 6 1016.7 1016.8 0.6
07/08:00pm 6.9 4.1 5.1 88 0.8 NNW 9 11 5 6 1016.7 1016.8 0.6
07/07:30pm 5.9 2.9 3.9 87 0.9 NW 9 11 5 6 1016.7 1016.8 0.6
07/07:00pm 6.5 4.0 4.0 84 1.1 WNW 6 7 3 4 1016.5 1016.6 0.6
07/06:30pm 7.6 5.1 4.7 82 1.3 NW 7 7 4 4 1016.3 1016.4 0.6
07/06:00pm 8.7 6.3 4.1 73 2.0 WNW 6 7 3 4 1015.9 1016.0 0.6
07/05:30pm 11.1 8.7 5.4 68 2.7 WNW 7 9 4 5 1015.9 1016.0 0.6
07/05:00pm 12.6 8.9 6.2 65 3.1 W 15 24 8 13 1015.7 1015.8 0.6

Other formats

Comma delimited format used in spreadsheet applications
http://www.bom.gov.au/fwo/IDW60801/IDW60801.95636.axf

JavaScript Object Notation format (JSON) in row-major order
http://www.bom.gov.au/fwo/IDW60801/IDW60801.95636.json

Data quality

Most of these data are generated automatically and are frequently updated. Quality checks on data are not normally performed. It is possible for incorrect values to appear. Refer to information at About Latest Weather Observations and please check the disclaimer before using these data.